Time;durP1;ratioP1;P1;durP2;ratioP2;P2;SDS_P1;SDS_P2;PMS_P1;PMS_P2;Temp;Humidity;BMP_temperature;BMP_pressure;BME280_temperature;BME280_humidity;BME280_pressure;Samples;Min_cycle;Max_cycle;Signal;HPM_P1;HPM_P2
2021/08/23 00:01:07;;;;;;;8.85;7.53;;;25.50;86.90;;;;;;5009196;28;20049;-68
2021/08/23 00:03:33;;;;;;;8.63;6.68;;;25.30;86.10;;;;;;5028338;28;20124;-68
2021/08/23 00:05:59;;;;;;;7.45;6.45;;;25.40;86.00;;;;;;5016188;28;20359;-69
2021/08/23 00:08:25;;;;;;;8.00;7.07;;;25.40;87.70;;;;;;5004934;28;20038;-67
2021/08/23 00:10:52;;;;;;;9.10;7.25;;;25.30;87.50;;;;;;5008245;28;20038;-68
2021/08/23 00:13:18;;;;;;;7.65;6.93;;;25.30;87.50;;;;;;5022712;28;20045;-65
2021/08/23 00:15:46;;;;;;;7.78;7.00;;;25.40;86.60;;;;;;5031768;28;20030;-69
2021/08/23 00:18:11;;;;;;;8.82;7.38;;;25.40;86.50;;;;;;5022903;28;20041;-69
2021/08/23 00:20:43;;;;;;;10.00;7.93;;;25.40;86.80;;;;;;5008742;28;20042;-69
2021/08/23 00:23:11;;;;;;;8.88;7.00;;;25.30;88.90;;;;;;5002059;28;20064;-69
2021/08/23 00:25:38;;;;;;;9.05;6.90;;;25.20;88.90;;;;;;5028215;28;20120;-69
2021/08/23 00:28:04;;;;;;;9.40;7.35;;;25.30;88.90;;;;;;5008439;28;20041;-69
2021/08/23 00:30:30;;;;;;;9.77;7.20;;;25.10;90.80;;;;;;5029931;28;20052;-69
2021/08/23 00:32:56;;;;;;;8.85;6.65;;;25.10;90.00;;;;;;5024706;28;20433;-69
2021/08/23 00:35:21;;;;;;;8.32;7.43;;;25.20;90.20;;;;;;5029485;28;20091;-68
2021/08/23 00:37:47;;;;;;;7.75;7.05;;;25.20;89.80;;;;;;5027311;28;20037;-69
2021/08/23 00:40:13;;;;;;;9.48;7.68;;;25.20;90.00;;;;;;5008337;28;20048;-69
2021/08/23 00:42:39;;;;;;;7.53;6.72;;;25.20;90.40;;;;;;5023544;28;20152;-69
2021/08/23 00:45:06;;;;;;;8.15;6.88;;;25.20;90.50;;;;;;5029771;28;20348;-69
2021/08/23 00:47:32;;;;;;;9.75;6.63;;;25.20;90.80;;;;;;5026918;28;20050;-69
2021/08/23 00:49:57;;;;;;;10.35;7.15;;;25.30;90.00;;;;;;5026607;28;20037;-69
2021/08/23 00:52:24;;;;;;;8.27;6.82;;;25.20;90.20;;;;;;5016248;28;20046;-69
2021/08/23 00:54:49;;;;;;;10.02;6.45;;;25.20;90.70;;;;;;5008759;28;20057;-69
2021/08/23 00:57:15;;;;;;;7.25;6.10;;;25.10;91.10;;;;;;5028584;28;20065;-69
2021/08/23 00:59:42;;;;;;;9.20;6.45;;;25.30;90.20;;;;;;5007514;28;20094;-68
2021/08/23 01:02:22;;;;;;;7.45;6.43;;;25.10;91.50;;;;;;5025326;28;20057;-69
2021/08/23 01:04:54;;;;;;;8.07;6.75;;;24.90;92.50;;;;;;5008007;28;20051;-68
2021/08/23 01:07:23;;;;;;;9.27;7.10;;;24.90;92.80;;;;;;5016784;28;20034;-68
2021/08/23 01:09:55;;;;;;;8.75;6.63;;;25.00;92.20;;;;;;5018240;28;20382;-68
2021/08/23 01:12:22;;;;;;;8.07;6.90;;;25.00;91.80;;;;;;5010571;28;20553;-69
2021/08/23 01:14:48;;;;;;;8.23;6.32;;;25.10;91.50;;;;;;5026902;28;20037;-69
2021/08/23 01:17:13;;;;;;;8.82;6.57;;;25.10;91.60;;;;;;5026949;28;20060;-69
2021/08/23 01:19:43;;;;;;;9.40;6.40;;;25.10;91.40;;;;;;5024847;28;20057;-69
2021/08/23 01:22:12;;;;;;;6.93;6.32;;;25.10;91.30;;;;;;5010466;28;20037;-69
2021/08/23 01:24:38;;;;;;;8.23;6.95;;;25.10;91.50;;;;;;5027508;28;22177;-69
2021/08/23 01:27:08;;;;;;;10.65;7.03;;;25.10;91.70;;;;;;5028861;28;20049;-69
2021/08/23 01:29:54;;;;;;;8.23;7.40;;;25.10;92.40;;;;;;5023331;28;20437;-69
2021/08/23 01:32:24;;;;;;;7.05;6.35;;;24.90;92.90;;;;;;5019036;28;20053;-69
2021/08/23 01:34:53;;;;;;;7.20;6.40;;;24.80;92.90;;;;;;5019829;28;20042;-68
2021/08/23 01:37:19;;;;;;;9.07;6.97;;;24.90;92.80;;;;;;5021937;28;20084;-69
2021/08/23 01:39:45;;;;;;;8.82;7.18;;;25.00;93.00;;;;;;5022649;28;20044;-68
2021/08/23 01:42:11;;;;;;;7.50;6.78;;;25.00;92.40;;;;;;5029989;28;20030;-68
2021/08/23 01:44:38;;;;;;;9.05;6.88;;;24.90;92.80;;;;;;5020812;28;20041;-67
2021/08/23 01:47:03;;;;;;;7.07;6.38;;;24.70;93.60;;;;;;5005290;28;20188;-67
2021/08/23 01:49:29;;;;;;;11.07;6.40;;;24.80;93.20;;;;;;5016910;28;20125;-68
2021/08/23 01:51:55;;;;;;;14.10;7.00;;;24.70;93.60;;;;;;5020724;28;20048;-67
2021/08/23 01:54:22;;;;;;;8.32;6.55;;;24.70;93.70;;;;;;5029887;28;20030;-66
2021/08/23 01:56:47;;;;;;;7.72;6.75;;;24.60;94.10;;;;;;5015238;28;20038;-68
2021/08/23 01:59:13;;;;;;;7.65;6.95;;;24.70;94.20;;;;;;5024352;28;20042;-68
2021/08/23 02:01:39;;;;;;;9.45;6.95;;;24.80;93.30;;;;;;5024771;28;20124;-68
2021/08/23 02:04:04;;;;;;;7.80;7.03;;;24.80;94.00;;;;;;5012156;28;20045;-68
2021/08/23 02:06:30;;;;;;;8.57;7.30;;;24.80;94.00;;;;;;5020185;28;20448;-68
2021/08/23 02:08:56;;;;;;;8.15;6.43;;;24.70;94.40;;;;;;5031207;28;20495;-68
2021/08/23 02:11:25;;;;;;;7.55;6.45;;;24.60;94.70;;;;;;5022869;28;20075;-68
2021/08/23 02:13:52;;;;;;;7.72;6.55;;;24.60;96.00;;;;;;5026879;28;20033;-67
2021/08/23 02:16:18;;;;;;;9.07;7.35;;;24.60;95.80;;;;;;5024666;28;20042;-63
2021/08/23 02:18:44;;;;;;;8.13;7.30;;;24.60;95.70;;;;;;5018152;28;20038;-69
2021/08/23 02:21:09;;;;;;;8.25;6.57;;;24.70;95.20;;;;;;5014534;28;20034;-69
2021/08/23 02:23:35;;;;;;;8.60;7.25;;;24.70;96.00;;;;;;5014100;28;20045;-69
2021/08/23 02:26:01;;;;;;;8.38;6.90;;;24.70;96.70;;;;;;5026154;28;20056;-69
2021/08/23 02:28:26;;;;;;;8.98;7.07;;;24.60;96.80;;;;;;5022549;28;20034;-68
2021/08/23 02:30:52;;;;;;;9.48;6.80;;;24.60;96.40;;;;;;5025395;28;20033;-68
2021/08/23 02:33:18;;;;;;;7.20;6.60;;;24.60;96.90;;;;;;5022381;28;20037;-62
2021/08/23 02:35:43;;;;;;;8.02;7.25;;;24.50;97.20;;;;;;5028211;28;20057;-68
2021/08/23 02:38:09;;;;;;;8.88;6.63;;;24.40;97.60;;;;;;5021458;28;20041;-67
2021/08/23 02:40:35;;;;;;;8.00;7.00;;;24.60;96.70;;;;;;5028716;28;20026;-68
2021/08/23 02:43:01;;;;;;;8.00;6.75;;;24.60;97.70;;;;;;5022313;28;20096;-68
2021/08/23 02:45:27;;;;;;;8.63;7.45;;;24.60;97.10;;;;;;5027316;28;20491;-68
2021/08/23 02:47:53;;;;;;;7.95;7.15;;;24.70;96.50;;;;;;5019700;28;20029;-68
2021/08/23 02:50:19;;;;;;;10.27;7.50;;;24.70;96.70;;;;;;5026280;28;20458;-67
2021/08/23 02:52:44;;;;;;;7.80;7.07;;;24.60;97.50;;;;;;5016656;28;20052;-68
2021/08/23 02:55:10;;;;;;;8.32;7.53;;;24.60;97.50;;;;;;5002985;28;20037;-68
2021/08/23 02:57:36;;;;;;;9.23;8.15;;;24.40;98.30;;;;;;5019766;28;20440;-68
2021/08/23 03:00:05;;;;;;;8.88;7.38;;;24.60;97.80;;;;;;5014758;28;20094;-68
2021/08/23 03:02:30;;;;;;;8.93;7.40;;;24.50;98.40;;;;;;5012220;28;20042;-68
2021/08/23 03:04:57;;;;;;;7.78;6.97;;;24.50;98.20;;;;;;5018005;28;20069;-68
2021/08/23 03:07:22;;;;;;;11.68;7.60;;;24.50;98.60;;;;;;5025760;28;20435;-68
2021/08/23 03:09:48;;;;;;;10.57;7.53;;;24.50;98.70;;;;;;5021054;28;20052;-63
2021/08/23 03:12:15;;;;;;;8.00;7.25;;;24.40;99.40;;;;;;5025321;28;20052;-68
2021/08/23 03:14:41;;;;;;;8.93;8.05;;;24.40;99.30;;;;;;5022398;28;20037;-69
2021/08/23 03:17:06;;;;;;;9.10;7.82;;;24.40;99.90;;;;;;5014434;28;20037;-68
2021/08/23 03:19:32;;;;;;;8.95;7.65;;;24.30;99.90;;;;;;5020353;28;20048;-68
2021/08/23 03:21:58;;;;;;;8.27;7.50;;;24.10;99.90;;;;;;5014364;28;20042;-68
2021/08/23 03:24:23;;;;;;;10.57;8.52;;;24.10;99.90;;;;;;5023768;28;20042;-68
2021/08/23 03:26:49;;;;;;;10.05;8.57;;;24.30;99.90;;;;;;5031200;28;20475;-68
2021/08/23 03:29:14;;;;;;;10.52;8.60;;;24.30;99.90;;;;;;5022232;28;20065;-69
2021/08/23 03:31:41;;;;;;;8.85;7.97;;;24.40;99.90;;;;;;5026345;28;20372;-68
2021/08/23 03:34:12;;;;;;;8.95;7.80;;;24.40;99.90;;;;;;5027493;28;20047;-69
2021/08/23 03:36:38;;;;;;;8.20;7.40;;;24.40;99.90;;;;;;5028396;28;20073;-68
2021/08/23 03:39:04;;;;;;;9.38;7.82;;;24.40;99.90;;;;;;5029782;28;20567;-69
2021/08/23 03:41:29;;;;;;;9.07;8.18;;;24.30;99.90;;;;;;5025011;28;20125;-69
2021/08/23 03:43:55;;;;;;;8.95;8.05;;;24.40;99.90;;;;;;5024721;28;20119;-69
2021/08/23 03:46:20;;;;;;;10.88;8.70;;;24.40;99.90;;;;;;5011863;28;20037;-68
2021/08/23 03:48:46;;;;;;;10.35;8.65;;;24.20;99.90;;;;;;5030600;28;20044;-68
2021/08/23 03:51:11;;;;;;;9.07;8.18;;;24.30;99.90;;;;;;5022796;28;20540;-69
2021/08/23 03:53:37;;;;;;;10.85;8.55;;;24.30;99.90;;;;;;5019305;28;20030;-68
2021/08/23 03:56:03;;;;;;;11.85;9.40;;;24.30;99.90;;;;;;5009140;28;20084;-69
2021/08/23 03:58:29;;;;;;;10.10;8.38;;;24.20;99.90;;;;;;5010300;28;20136;-68
2021/08/23 04:00:54;;;;;;;9.48;8.30;;;24.20;99.90;;;;;;5012094;28;20046;-68
2021/08/23 04:03:20;;;;;;;10.88;9.02;;;24.20;99.90;;;;;;5010225;28;20581;-68
2021/08/23 04:05:45;;;;;;;9.55;8.65;;;24.20;99.90;;;;;;5006009;28;20038;-69
2021/08/23 04:08:11;;;;;;;14.18;8.85;;;24.10;99.90;;;;;;5021295;28;20056;-68
2021/08/23 04:10:37;;;;;;;10.68;8.75;;;24.30;99.90;;;;;;5017634;28;20049;-69
2021/08/23 04:13:02;;;;;;;11.38;9.00;;;24.40;99.90;;;;;;5024748;28;20052;-68
2021/08/23 04:15:28;;;;;;;8.77;7.88;;;24.30;99.90;;;;;;5014588;28;20026;-68
2021/08/23 04:17:53;;;;;;;10.25;8.57;;;24.30;99.90;;;;;;5016033;28;20052;-68
2021/08/23 04:20:19;;;;;;;11.77;9.00;;;24.30;99.90;;;;;;5013130;28;20060;-67
2021/08/23 04:22:44;;;;;;;10.10;8.88;;;24.30;99.90;;;;;;5018287;28;20042;-69
2021/08/23 04:25:10;;;;;;;11.10;8.73;;;24.30;99.90;;;;;;5019247;28;20053;-68
2021/08/23 04:27:35;;;;;;;10.52;9.02;;;24.30;99.90;;;;;;5021759;28;20033;-68
2021/08/23 04:30:01;;;;;;;11.15;8.50;;;24.10;99.90;;;;;;5032052;28;20660;-69
2021/08/23 04:32:27;;;;;;;11.27;9.07;;;24.20;99.90;;;;;;5003066;28;20049;-69
2021/08/23 04:34:52;;;;;;;9.88;8.93;;;24.10;99.90;;;;;;5018338;28;20372;-68
2021/08/23 04:37:18;;;;;;;11.57;9.43;;;24.20;99.90;;;;;;5024818;28;20088;-69
2021/08/23 04:39:45;;;;;;;9.63;8.63;;;24.30;99.90;;;;;;5009993;28;20109;-68
2021/08/23 04:42:10;;;;;;;9.35;8.43;;;24.30;99.90;;;;;;5006771;28;20038;-70
2021/08/23 04:44:36;;;;;;;9.77;8.77;;;24.30;99.90;;;;;;5012417;28;20041;-67
2021/08/23 04:47:02;;;;;;;9.80;9.00;;;24.10;99.90;;;;;;5024303;28;20037;-68
2021/08/23 04:49:27;;;;;;;8.90;8.00;;;24.20;99.90;;;;;;5025802;28;20037;-68
2021/08/23 04:51:53;;;;;;;11.00;8.73;;;24.10;99.90;;;;;;5016927;28;20045;-68
2021/08/23 04:54:19;;;;;;;9.05;7.97;;;24.10;99.90;;;;;;5007054;28;20117;-64
2021/08/23 04:56:47;;;;;;;12.25;9.55;;;24.10;99.90;;;;;;5014691;28;20037;-68
2021/08/23 04:59:14;;;;;;;11.13;8.88;;;24.10;99.90;;;;;;5020510;28;20045;-68
2021/08/23 05:01:40;;;;;;;10.07;8.98;;;24.10;99.90;;;;;;5028894;28;20068;-67
2021/08/23 05:04:05;;;;;;;9.70;8.70;;;24.10;99.90;;;;;;5022494;28;20443;-67
2021/08/23 05:06:31;;;;;;;10.27;9.15;;;24.10;99.90;;;;;;5024253;28;20044;-68
2021/08/23 05:08:57;;;;;;;9.90;8.90;;;24.00;99.90;;;;;;5022301;28;20101;-68
2021/08/23 05:11:22;;;;;;;10.88;9.65;;;24.10;99.90;;;;;;5029627;28;20483;-68
2021/08/23 05:13:48;;;;;;;11.38;8.80;;;24.20;99.90;;;;;;5024932;28;20037;-68
2021/08/23 05:16:13;;;;;;;10.73;9.27;;;24.20;99.90;;;;;;5013618;28;20034;-68
2021/08/23 05:18:39;;;;;;;11.95;9.68;;;24.30;99.90;;;;;;5003718;28;20068;-68
2021/08/23 05:21:05;;;;;;;11.35;8.60;;;24.30;99.90;;;;;;5024454;28;20041;-68
2021/08/23 05:23:31;;;;;;;9.82;8.65;;;24.40;99.90;;;;;;5023508;28;20065;-68
2021/08/23 05:25:57;;;;;;;9.93;8.98;;;24.40;99.40;;;;;;5025884;28;20094;-68
2021/08/23 05:28:23;;;;;;;9.50;8.60;;;24.40;99.20;;;;;;5027164;28;20041;-68
2021/08/23 05:30:50;;;;;;;11.77;8.85;;;24.50;98.90;;;;;;5023077;28;20033;-68
2021/08/23 05:33:16;;;;;;;11.18;9.07;;;24.60;98.40;;;;;;5002483;28;20029;-68
2021/08/23 05:35:41;;;;;;;11.27;8.85;;;24.60;98.00;;;;;;5009842;28;20049;-68
2021/08/23 05:38:07;;;;;;;10.95;8.98;;;24.60;97.30;;;;;;5024966;28;20100;-68
2021/08/23 05:40:34;;;;;;;11.77;9.10;;;24.60;97.10;;;;;;5013558;28;20034;-68
2021/08/23 05:43:01;;;;;;;9.63;8.73;;;24.60;97.50;;;;;;5010986;28;20049;-67
2021/08/23 05:45:28;;;;;;;12.02;9.30;;;24.60;97.90;;;;;;5023312;28;20045;-68
2021/08/23 05:47:54;;;;;;;11.65;9.80;;;24.60;97.50;;;;;;5028914;28;20120;-67
2021/08/23 05:50:19;;;;;;;11.57;8.82;;;24.70;98.00;;;;;;5022547;28;20120;-67
2021/08/23 05:52:45;;;;;;;13.15;9.02;;;24.80;97.80;;;;;;5016389;28;20503;-68
2021/08/23 05:55:10;;;;;;;12.73;10.02;;;24.80;97.70;;;;;;5013964;28;20046;-68
2021/08/23 05:57:36;;;;;;;10.15;9.10;;;24.70;98.00;;;;;;5010648;28;20425;-68
2021/08/23 06:00:04;;;;;;;13.88;9.48;;;24.70;98.00;;;;;;5003101;28;20050;-67
2021/08/23 06:02:30;;;;;;;10.52;9.23;;;24.70;98.00;;;;;;5022281;28;20148;-68
2021/08/23 06:04:55;;;;;;;10.95;9.13;;;24.70;98.00;;;;;;5022844;28;20424;-69
2021/08/23 06:07:21;;;;;;;12.57;9.68;;;24.70;97.90;;;;;;5018231;28;20037;-68
2021/08/23 06:09:47;;;;;;;11.32;10.10;;;24.80;97.80;;;;;;5011372;28;20041;-69
2021/08/23 06:12:12;;;;;;;12.65;10.18;;;24.80;97.70;;;;;;5009761;28;20116;-69
2021/08/23 06:14:40;;;;;;;10.55;8.98;;;24.80;97.60;;;;;;5028868;28;20040;-69
2021/08/23 06:17:07;;;;;;;12.88;9.98;;;24.90;97.40;;;;;;5023434;28;20068;-69
2021/08/23 06:19:33;;;;;;;10.00;9.10;;;24.90;97.00;;;;;;5031172;28;20403;-69
2021/08/23 06:21:58;;;;;;;12.00;10.57;;;24.90;96.70;;;;;;5023240;28;20470;-68
2021/08/23 06:24:24;;;;;;;12.75;10.18;;;25.00;95.90;;;;;;5015016;28;20200;-68
2021/08/23 06:26:49;;;;;;;12.82;9.57;;;24.90;96.10;;;;;;5005703;28;20060;-67
2021/08/23 06:29:15;;;;;;;10.85;9.75;;;25.00;96.10;;;;;;5004522;28;20076;-69
2021/08/23 06:31:41;;;;;;;14.18;10.23;;;25.10;95.80;;;;;;5005102;28;20079;-69
2021/08/23 06:34:08;;;;;;;10.75;9.02;;;25.10;95.60;;;;;;5009943;28;20034;-69
2021/08/23 06:36:33;;;;;;;12.80;10.63;;;25.10;95.00;;;;;;5011662;28;20037;-67
2021/08/23 06:38:59;;;;;;;11.63;10.52;;;25.10;94.80;;;;;;5026033;28;20064;-68
2021/08/23 06:41:25;;;;;;;11.85;10.48;;;25.10;94.70;;;;;;5021570;28;20069;-68
2021/08/23 06:43:51;;;;;;;13.60;10.30;;;25.10;94.10;;;;;;5014614;28;20046;-67
2021/08/23 06:46:24;;;;;;;11.27;9.77;;;25.10;93.70;;;;;;5029337;28;20041;-67
2021/08/23 06:48:50;;;;;;;11.82;9.43;;;25.10;93.50;;;;;;5019362;28;20036;-68
2021/08/23 06:51:19;;;;;;;11.15;9.32;;;25.20;93.30;;;;;;5012181;28;20030;-68
2021/08/23 06:53:46;;;;;;;12.10;9.68;;;25.20;92.60;;;;;;5018746;28;20045;-68
2021/08/23 06:56:12;;;;;;;11.95;9.00;;;25.30;92.20;;;;;;5026776;28;20051;-69
2021/08/23 06:58:37;;;;;;;13.05;9.77;;;25.30;91.70;;;;;;5017418;28;20124;-68
2021/08/23 07:01:03;;;;;;;10.25;9.18;;;25.30;91.60;;;;;;5021043;28;20050;-68
2021/08/23 07:03:29;;;;;;;10.13;9.23;;;25.40;91.30;;;;;;5025885;28;20459;-69
2021/08/23 07:05:54;;;;;;;15.10;10.32;;;25.40;91.40;;;;;;5001469;28;20450;-69
2021/08/23 07:08:20;;;;;;;10.88;9.75;;;25.40;91.10;;;;;;5022260;28;20581;-68
2021/08/23 07:10:45;;;;;;;12.52;9.43;;;25.40;91.00;;;;;;5024796;28;20466;-68
2021/08/23 07:13:11;;;;;;;11.70;9.40;;;25.50;90.80;;;;;;5024699;28;20114;-68
2021/08/23 07:15:37;;;;;;;14.82;10.68;;;25.60;90.70;;;;;;5021101;28;20038;-68
2021/08/23 07:18:03;;;;;;;12.70;10.15;;;25.50;90.40;;;;;;5020263;28;20065;-68
2021/08/23 07:20:29;;;;;;;12.25;9.80;;;25.60;90.40;;;;;;5023834;28;20651;-68
2021/08/23 07:22:54;;;;;;;15.95;11.20;;;25.60;90.20;;;;;;5022258;28;20434;-68
2021/08/23 07:25:20;;;;;;;11.23;10.10;;;25.70;90.40;;;;;;5025993;28;20083;-67
2021/08/23 07:27:46;;;;;;;11.40;10.02;;;25.60;90.10;;;;;;5028352;28;20038;-68
2021/08/23 07:30:12;;;;;;;13.40;9.68;;;25.70;90.10;;;;;;5001668;28;20537;-69
2021/08/23 07:32:39;;;;;;;10.65;9.55;;;25.80;90.10;;;;;;5010227;28;20038;-68
2021/08/23 07:35:06;;;;;;;11.85;9.77;;;25.80;90.00;;;;;;5001683;28;20132;-68
2021/08/23 07:37:33;;;;;;;10.63;9.52;;;25.90;89.90;;;;;;5007058;28;20030;-68
2021/08/23 07:40:53;;;;;;;14.38;9.45;;;25.90;89.90;;;;;;5002768;28;20495;-67
2021/08/23 07:43:19;;;;;;;12.88;10.75;;;26.00;90.00;;;;;;5000221;28;20041;-68
2021/08/23 07:45:45;;;;;;;10.73;9.63;;;26.00;89.50;;;;;;5023214;28;20033;-68
2021/08/23 07:48:10;;;;;;;11.60;9.90;;;26.10;89.30;;;;;;5009190;28;20086;-67
2021/08/23 07:50:36;;;;;;;11.80;8.82;;;26.10;89.20;;;;;;5022983;28;20033;-68
2021/08/23 07:53:03;;;;;;;19.23;10.65;;;26.20;89.00;;;;;;5025810;28;20050;-68
2021/08/23 07:55:47;;;;;;;12.00;10.75;;;26.20;88.70;;;;;;5021899;28;20042;-68
2021/08/23 07:58:13;;;;;;;9.57;8.43;;;26.20;88.90;;;;;;5010075;28;20392;-68
2021/08/23 08:00:38;;;;;;;11.50;9.90;;;26.20;88.30;;;;;;5008179;28;20042;-68
2021/08/23 08:03:04;;;;;;;9.80;8.80;;;26.30;87.70;;;;;;5000390;28;20042;-68
2021/08/23 08:05:29;;;;;;;12.35;9.52;;;26.40;87.40;;;;;;4995378;28;20456;-68
2021/08/23 08:07:55;;;;;;;10.85;9.75;;;26.50;87.10;;;;;;5010827;28;20122;-68
2021/08/23 08:10:21;;;;;;;11.70;10.05;;;26.50;86.40;;;;;;5004185;28;20084;-68
2021/08/23 08:12:46;;;;;;;10.50;9.40;;;26.50;86.20;;;;;;5011649;28;20088;-69
2021/08/23 08:15:12;;;;;;;11.20;9.68;;;26.50;85.70;;;;;;5009760;28;20132;-69
2021/08/23 08:17:37;;;;;;;11.75;9.10;;;26.60;85.20;;;;;;5009826;28;20180;-69
2021/08/23 08:20:05;;;;;;;10.43;8.68;;;26.60;85.10;;;;;;5023538;28;20056;-68
2021/08/23 08:22:31;;;;;;;11.43;9.70;;;26.70;84.90;;;;;;5000650;28;20038;-68
2021/08/23 08:24:57;;;;;;;13.57;9.90;;;26.70;84.40;;;;;;5027193;28;20502;-68
2021/08/23 08:27:22;;;;;;;13.75;10.38;;;26.80;84.00;;;;;;4993877;28;20487;-67
2021/08/23 08:29:48;;;;;;;12.68;10.95;;;26.80;83.70;;;;;;5010052;28;20569;-67
2021/08/23 08:32:13;;;;;;;11.90;10.70;;;26.90;83.70;;;;;;5005266;28;20081;-68
2021/08/23 08:34:39;;;;;;;11.93;9.43;;;26.80;83.80;;;;;;5029187;28;20061;-69
2021/08/23 08:37:05;;;;;;;12.27;10.88;;;26.90;83.80;;;;;;5006992;28;20034;-68
2021/08/23 08:39:30;;;;;;;15.35;12.32;;;26.90;83.90;;;;;;5006264;28;20061;-68
2021/08/23 08:41:57;;;;;;;14.82;12.07;;;26.90;84.40;;;;;;5007802;28;20063;-69
2021/08/23 08:44:23;;;;;;;15.85;11.88;;;27.00;84.40;;;;;;5030260;28;20119;-68
2021/08/23 08:46:49;;;;;;;13.70;10.93;;;27.10;83.80;;;;;;5026443;28;20475;-69
2021/08/23 08:49:16;;;;;;;13.82;12.43;;;27.30;83.60;;;;;;5014689;28;20060;-68
2021/08/23 08:51:43;;;;;;;16.40;11.65;;;27.40;82.80;;;;;;5016577;28;20045;-69
2021/08/23 08:54:09;;;;;;;15.07;13.35;;;27.40;82.90;;;;;;5026523;28;20391;-69
2021/08/23 08:56:35;;;;;;;16.80;13.90;;;27.30;82.90;;;;;;5024426;28;20030;-69
2021/08/23 08:59:02;;;;;;;15.25;12.55;;;27.40;82.70;;;;;;5032068;28;20053;-68
2021/08/23 09:01:27;;;;;;;17.25;15.48;;;27.40;82.40;;;;;;5028385;28;20034;-69
2021/08/23 09:03:59;;;;;;;17.92;15.00;;;27.40;82.50;;;;;;5024168;28;20049;-66
2021/08/23 09:06:24;;;;;;;16.85;14.88;;;27.60;81.90;;;;;;5023818;28;20040;-67
2021/08/23 09:08:50;;;;;;;19.98;14.93;;;27.70;80.50;;;;;;5017345;28;20029;-66
2021/08/23 09:11:17;;;;;;;19.05;16.13;;;27.80;80.40;;;;;;5007780;28;20037;-68
2021/08/23 09:14:02;;;;;;;16.13;13.38;;;27.80;79.60;;;;;;5009497;28;20095;-67
2021/08/23 09:16:31;;;;;;;;;;;28.20;79.10;;;;;;4995421;28;20491;-67
2021/08/23 09:18:57;;;;;;;17.05;13.35;;;28.20;78.30;;;;;;5010619;28;19914;-69
2021/08/23 09:22:03;;;;;;;15.38;13.65;;;28.10;78.60;;;;;;5009670;28;20086;-67
2021/08/23 09:24:34;;;;;;;14.93;13.38;;;28.30;78.00;;;;;;4986122;28;20044;-69
2021/08/23 09:27:04;;;;;;;15.13;13.38;;;28.30;77.10;;;;;;5009778;28;20362;-67
2021/08/23 09:29:30;;;;;;;12.48;11.25;;;28.30;76.40;;;;;;5022266;28;20534;-67
2021/08/23 09:31:59;;;;;;;14.77;13.27;;;28.40;76.20;;;;;;5012401;28;20061;-67
2021/08/23 09:34:25;;;;;;;12.95;11.65;;;28.60;75.80;;;;;;4992695;28;20034;-67
2021/08/23 09:36:58;;;;;;;14.77;13.27;;;28.50;76.20;;;;;;5013436;28;20040;-67
2021/08/23 09:39:28;;;;;;;13.52;12.13;;;28.50;76.90;;;;;;5005933;28;20057;-67
2021/08/23 09:42:05;;;;;;;13.50;12.10;;;28.50;76.80;;;;;;5013177;28;20048;-67
2021/08/23 09:44:37;;;;;;;13.15;10.85;;;28.90;74.80;;;;;;5020407;28;20407;-68
2021/08/23 09:47:03;;;;;;;13.23;11.20;;;29.00;74.70;;;;;;5013464;28;20842;-67
2021/08/23 09:49:39;;;;;;;13.38;9.98;;;29.20;73.40;;;;;;5022501;28;20052;-67
2021/08/23 09:52:06;;;;;;;11.40;9.68;;;29.30;71.60;;;;;;5028548;28;20064;-67
2021/08/23 09:54:33;;;;;;;9.82;8.90;;;29.20;71.00;;;;;;5022514;28;20045;-67
2021/08/23 09:56:58;;;;;;;11.23;8.43;;;29.30;70.00;;;;;;5022995;28;20045;-67
2021/08/23 09:59:37;;;;;;;11.93;9.00;;;29.10;70.30;;;;;;5019195;28;20045;-67
2021/08/23 10:02:03;;;;;;;12.93;8.75;;;29.00;70.40;;;;;;5024061;28;20042;-67
2021/08/23 10:04:30;;;;;;;9.00;7.85;;;29.00;69.80;;;;;;5019023;28;20665;-67
2021/08/23 10:06:56;;;;;;;11.60;9.70;;;29.00;69.30;;;;;;5011986;28;20072;-67
2021/08/23 10:09:23;;;;;;;9.90;8.85;;;28.80;68.80;;;;;;5006181;28;20547;-67
2021/08/23 10:11:51;;;;;;;8.73;7.70;;;28.90;67.80;;;;;;5028956;28;20088;-68
2021/08/23 10:14:17;;;;;;;8.63;7.70;;;29.00;67.70;;;;;;4998177;28;20379;-68
2021/08/23 10:16:44;;;;;;;8.63;6.30;;;29.10;67.10;;;;;;5019138;28;20090;-67
2021/08/23 10:19:09;;;;;;;7.57;6.10;;;29.10;64.60;;;;;;5017177;28;20548;-67
2021/08/23 10:21:37;;;;;;;6.63;5.22;;;29.20;63.70;;;;;;5020515;28;20034;-68
2021/08/23 10:24:04;;;;;;;6.10;5.50;;;29.20;60.80;;;;;;5027122;28;20041;-67
2021/08/23 10:26:44;;;;;;;7.53;6.55;;;29.20;60.90;;;;;;5021602;28;20029;-67
2021/08/23 10:29:12;;;;;;;8.68;6.40;;;29.30;60.60;;;;;;4999854;28;20098;-68
2021/08/23 10:31:41;;;;;;;8.20;6.68;;;29.50;61.20;;;;;;5002025;28;20086;-68
2021/08/23 10:34:15;;;;;;;10.20;8.00;;;29.60;61.80;;;;;;5013450;28;20041;-68
2021/08/23 10:36:42;;;;;;;13.32;8.32;;;29.60;61.90;;;;;;5009873;28;20046;-69
2021/08/23 10:39:08;;;;;;;9.52;8.20;;;29.70;61.70;;;;;;5025767;28;20068;-68
2021/08/23 10:41:34;;;;;;;21.70;8.38;;;30.00;61.40;;;;;;5013046;28;20434;-68
2021/08/23 10:44:03;;;;;;;8.98;8.07;;;30.20;60.30;;;;;;5006237;28;20053;-67
2021/08/23 10:46:32;;;;;;;8.32;7.50;;;30.20;59.90;;;;;;5003863;28;20087;-67
2021/08/23 10:49:17;;;;;;;8.15;7.45;;;30.30;59.80;;;;;;5019822;28;20033;-68
2021/08/23 10:52:04;;;;;;;6.80;6.18;;;30.50;58.10;;;;;;5020366;28;20524;-68
2021/08/23 10:54:41;;;;;;;6.70;5.80;;;30.80;56.30;;;;;;5000749;28;20041;-68
2021/08/23 10:57:09;;;;;;;10.45;6.85;;;30.90;54.40;;;;;;5015785;28;20034;-68
2021/08/23 10:59:40;;;;;;;6.65;5.95;;;30.60;55.70;;;;;;5021008;28;20132;-69
2021/08/23 11:02:06;;;;;;;7.97;7.18;;;30.70;56.10;;;;;;5005261;28;20037;-68
2021/08/23 11:04:38;;;;;;;9.50;7.82;;;30.60;56.50;;;;;;5008572;28;20057;-68
2021/08/23 11:07:07;;;;;;;9.43;8.55;;;30.60;56.60;;;;;;5020746;28;20041;-68
2021/08/23 11:09:34;;;;;;;11.23;7.22;;;30.50;57.00;;;;;;5025535;28;20049;-69
2021/08/23 11:12:15;;;;;;;10.98;9.88;;;30.40;57.30;;;;;;5021613;28;20106;-68
2021/08/23 11:14:42;;;;;;;9.40;8.60;;;30.50;56.80;;;;;;5019222;28;20085;-68
2021/08/23 11:17:08;;;;;;;11.43;10.35;;;30.60;57.60;;;;;;5002426;28;20128;-69
2021/08/23 11:19:37;;;;;;;11.40;10.13;;;31.00;57.20;;;;;;5014321;28;20117;-68
2021/08/23 11:22:04;;;;;;;12.23;9.85;;;31.20;55.70;;;;;;5022630;28;20069;-68
2021/08/23 11:24:31;;;;;;;12.50;11.27;;;31.40;55.60;;;;;;5020363;28;20804;-68
2021/08/23 11:27:01;;;;;;;11.82;10.73;;;31.60;57.20;;;;;;5001474;28;20063;-68
2021/08/23 11:29:32;;;;;;;17.02;10.23;;;31.30;56.20;;;;;;5019362;28;20185;-69
2021/08/23 11:32:08;;;;;;;11.85;10.48;;;31.20;56.20;;;;;;5026324;28;20037;-68
2021/08/23 11:34:34;;;;;;;14.55;11.80;;;31.30;55.60;;;;;;5008021;28;20041;-69
2021/08/23 11:37:05;;;;;;;13.60;10.68;;;31.30;54.50;;;;;;5009179;28;20025;-68
2021/08/23 11:39:35;;;;;;;13.25;8.85;;;31.40;53.80;;;;;;5006522;28;20107;-69
2021/08/23 11:42:03;;;;;;;12.90;7.28;;;31.90;51.80;;;;;;5015874;28;20045;-69
2021/08/23 11:44:29;;;;;;;8.35;7.07;;;32.30;48.40;;;;;;5007913;28;20057;-68
2021/08/23 11:47:03;;;;;;;10.00;7.10;;;33.00;47.00;;;;;;5012079;28;20030;-68
2021/08/23 11:49:31;;;;;;;7.70;6.90;;;34.80;42.70;;;;;;5010880;28;20132;-68
2021/08/23 11:51:57;;;;;;;8.00;6.50;;;;;;;;;;5029241;28;20041;-67
2021/08/23 11:54:23;;;;;;;10.25;5.63;;;38.10;33.50;;;;;;5025832;28;20037;-68
2021/08/23 11:56:49;;;;;;;9.25;5.13;;;39.00;29.90;;;;;;5033327;28;20196;-68
2021/08/23 11:59:14;;;;;;;7.22;4.90;;;40.00;29.00;;;;;;5026020;28;20479;-68
2021/08/23 12:01:40;;;;;;;6.10;4.47;;;40.20;28.10;;;;;;5025361;28;20058;-68
2021/08/23 12:04:06;;;;;;;7.88;5.15;;;40.10;27.00;;;;;;5022480;28;20057;-68
2021/08/23 12:06:35;;;;;;;5.03;4.63;;;40.10;25.50;;;;;;5027230;28;20376;-68
2021/08/23 12:09:02;;;;;;;6.05;4.65;;;40.10;24.90;;;;;;5012224;28;20042;-68
2021/08/23 12:11:41;;;;;;;5.57;4.32;;;41.90;24.10;;;;;;5020577;28;20030;-68
2021/08/23 12:14:16;;;;;;;4.80;4.30;;;41.90;22.20;;;;;;5025022;28;20458;-68
2021/08/23 12:16:44;;;;;;;4.43;4.03;;;41.30;21.60;;;;;;5008105;28;21022;-68
2021/08/23 12:19:11;;;;;;;3.97;3.63;;;41.50;23.00;;;;;;5010819;28;20026;-69
2021/08/23 12:21:38;;;;;;;6.13;4.00;;;41.80;22.00;;;;;;5012864;28;20132;-69
2021/08/23 12:24:13;;;;;;;4.90;4.30;;;42.60;22.80;;;;;;5028011;28;20045;-69
2021/08/23 12:26:48;;;;;;;5.57;3.85;;;41.80;21.40;;;;;;5025939;28;20044;-69
2021/08/23 12:29:16;;;;;;;5.60;4.20;;;41.50;21.90;;;;;;5026232;28;20040;-69
2021/08/23 12:32:09;;;;;;;7.20;4.20;;;41.30;22.80;;;;;;5024548;28;20082;-69
2021/08/23 12:34:40;;;;;;;4.50;4.10;;;41.50;21.80;;;;;;5000640;28;20037;-69
2021/08/23 12:37:06;;;;;;;4.72;4.00;;;42.10;21.30;;;;;;5006621;28;20679;-69
2021/08/23 12:39:31;;;;;;;4.03;3.58;;;43.70;21.00;;;;;;5027583;28;20033;-69
2021/08/23 12:41:59;;;;;;;8.40;7.50;;;43.00;20.50;;;;;;5010831;28;20091;-69